Time;durP1;ratioP1;P1;durP2;ratioP2;P2;SDS_P1;SDS_P2;PMS_P1;PMS_P2;Temp;Humidity;BMP_temperature;BMP_pressure;BME280_temperature;BME280_humidity;BME280_pressure;Samples;Min_cycle;Max_cycle;Signal;HPM_P1;HPM_P2
2022/11/07 00:00:28;;;;;;;24.73;14.20;;;;;;;14.19;77.10;97290.66;4968912;28;20192;-75
2022/11/07 00:02:55;;;;;;;21.97;13.90;;;;;;;14.17;76.90;97289.06;4969430;28;20216;-75
2022/11/07 00:05:22;;;;;;;19.23;12.63;;;;;;;14.26;77.08;97301.56;4967454;28;20191;-74
2022/11/07 00:07:48;;;;;;;20.17;13.23;;;;;;;14.27;76.43;97298.88;4968242;28;20205;-75
2022/11/07 00:10:15;;;;;;;25.13;13.50;;;;;;;14.30;76.44;97303.94;4968678;28;20228;-74
2022/11/07 00:12:42;;;;;;;20.43;12.77;;;;;;;14.10;76.92;97295.53;4968973;28;20291;-75
2022/11/07 00:15:09;;;;;;;21.43;13.10;;;;;;;14.09;76.96;97299.06;4968792;28;20187;-77
2022/11/07 00:17:36;;;;;;;21.23;12.70;;;;;;;14.07;77.42;97303.53;4968645;28;20632;-77
2022/11/07 00:20:04;;;;;;;23.87;13.10;;;;;;;14.02;77.28;97308.13;4968819;28;20267;-76
2022/11/07 00:22:30;;;;;;;19.63;12.87;;;;;;;13.99;77.75;97303.09;4968731;28;20230;-76
2022/11/07 00:24:57;;;;;;;21.77;12.13;;;;;;;14.13;77.36;97301.41;4968856;28;20194;-77
2022/11/07 00:27:24;;;;;;;23.23;13.50;;;;;;;14.17;77.42;97297.72;4968513;28;20195;-75
2022/11/07 00:29:51;;;;;;;20.93;13.40;;;;;;;14.13;77.16;97304.03;4969078;28;20255;-75
2022/11/07 00:32:18;;;;;;;20.27;13.30;;;;;;;14.15;77.44;97303.94;4968487;28;20418;-75
2022/11/07 00:34:45;;;;;;;29.03;13.60;;;;;;;14.12;77.52;97312.75;4968508;28;20203;-74
2022/11/07 00:37:12;;;;;;;27.00;13.87;;;;;;;14.14;77.21;97299.63;4968625;28;20670;-75
2022/11/07 00:39:38;;;;;;;22.37;12.87;;;;;;;14.23;76.70;97304.34;4968005;28;20187;-74
2022/11/07 00:42:05;;;;;;;21.73;14.00;;;;;;;14.26;76.83;97307.59;4968804;28;20580;-75
2022/11/07 00:44:32;;;;;;;22.43;12.77;;;;;;;14.22;76.86;97293.06;4968057;28;20672;-74
2022/11/07 00:46:59;;;;;;;21.80;13.20;;;;;;;14.32;76.40;97301.25;4968798;28;20595;-75
2022/11/07 00:49:26;;;;;;;21.90;13.60;;;;;;;14.22;76.35;97300.06;4968284;28;20578;-74
2022/11/07 00:51:53;;;;;;;21.00;13.63;;;;;;;14.14;76.82;97307.44;4968171;28;20285;-74
2022/11/07 00:54:20;;;;;;;26.30;15.17;;;;;;;14.07;76.07;97290.50;4968233;28;20728;-74
2022/11/07 00:56:46;;;;;;;23.87;14.97;;;;;;;14.08;76.19;97297.38;4967965;28;20262;-75
2022/11/07 00:59:13;;;;;;;23.43;14.37;;;;;;;13.88;77.01;97298.47;4968464;28;20190;-74
2022/11/07 01:01:40;;;;;;;18.80;13.23;;;;;;;13.93;76.70;97288.63;4967543;28;20208;-75
2022/11/07 01:06:57;;;;;;;22.00;13.60;;;;;;;13.87;75.94;97284.63;4967945;28;20192;-75
2022/11/07 01:09:24;;;;;;;25.17;13.40;;;;;;;13.67;77.35;97291.81;4967867;28;20228;-76
2022/11/07 01:11:50;;;;;;;18.83;11.80;;;;;;;13.57;77.34;97296.69;4968171;28;20544;-77
2022/11/07 01:14:20;;;;;;;21.73;13.40;;;;;;;13.63;76.96;97292.91;4968123;28;20607;-77
2022/11/07 01:16:47;;;;;;;18.80;12.53;;;;;;;13.38;77.47;97282.13;4968429;28;20244;-76
2022/11/07 01:19:15;;;;;;;23.20;14.07;;;;;;;13.25;79.16;97287.13;4967530;28;20198;-76
2022/11/07 01:21:42;;;;;;;29.70;15.17;;;;;;;13.25;79.14;97291.53;4968034;28;20189;-76
2022/11/07 01:24:12;;;;;;;22.27;14.57;;;;;;;13.35;79.08;97287.50;4966744;28;20592;-76
2022/11/07 01:26:40;;;;;;;23.07;13.77;;;;;;;13.47;77.99;97289.47;4967895;28;20630;-76
2022/11/07 01:29:07;;;;;;;23.80;13.10;;;;;;;13.50;77.78;97289.28;4968079;28;20225;-76
2022/11/07 01:31:34;;;;;;;22.47;13.83;;;;;;;13.56;77.44;97281.19;4966230;28;20184;-76
2022/11/07 01:34:01;;;;;;;22.23;12.73;;;;;;;13.56;77.32;97284.59;4968752;28;20208;-76
2022/11/07 01:36:28;;;;;;;23.97;12.77;;;;;;;13.50;76.94;97282.31;4969662;28;20960;-76
2022/11/07 01:38:56;;;;;;;22.03;12.80;;;;;;;13.52;76.47;97288.28;4970822;28;20285;-75
2022/11/07 01:41:25;;;;;;;21.67;14.57;;;;;;;13.56;76.48;97281.19;4971833;28;20181;-75
2022/11/07 01:44:05;;;;;;;21.37;13.23;;;;;;;13.45;76.56;97276.53;4971608;28;20215;-74
2022/11/07 01:46:43;;;;;;;27.33;15.37;;;;;;;13.33;76.72;97286.75;4971706;28;20542;-73
2022/11/07 01:49:28;;;;;;;25.10;15.20;;;;;;;13.22;76.78;97281.25;4969743;28;20198;-73
2022/11/07 01:52:13;;;;;;;26.13;14.87;;;;;;;13.01;77.86;97284.03;4971756;28;20205;-73
2022/11/07 01:54:47;;;;;;;25.67;15.33;;;;;;;13.00;77.47;97284.94;4971416;28;20215;-74
2022/11/07 01:57:22;;;;;;;24.73;14.93;;;;;;;13.06;77.50;97279.44;4971229;28;20196;-74
2022/11/07 01:59:53;;;;;;;23.17;14.00;;;;;;;13.05;77.57;97276.94;4971799;28;20182;-74
2022/11/07 02:02:24;;;;;;;27.83;14.30;;;;;;;12.93;77.68;97278.38;4970991;28;20204;-74
2022/11/07 02:04:53;;;;;;;20.37;13.87;;;;;;;12.87;77.15;97272.66;4970446;28;20190;-73
2022/11/07 02:07:23;;;;;;;22.80;12.90;;;;;;;12.97;76.13;97285.09;4969844;28;20198;-74
2022/11/07 02:09:52;;;;;;;18.30;12.43;;;;;;;12.83;77.08;97289.31;4971400;28;20694;-74
2022/11/07 02:12:20;;;;;;;24.97;14.33;;;;;;;12.57;78.77;97280.22;4971572;28;20189;-74
2022/11/07 02:14:48;;;;;;;27.30;14.43;;;;;;;12.41;80.61;97287.09;4970970;28;20205;-75
2022/11/07 02:17:15;;;;;;;25.53;14.83;;;;;;;12.39;80.42;97283.75;4971436;28;20212;-75
2022/11/07 02:19:54;;;;;;;24.13;15.50;;;;;;;12.24;80.67;97276.72;4969053;28;20696;-75
2022/11/07 02:22:21;;;;;;;25.97;17.23;;;;;;;12.23;81.83;97282.81;4971009;28;20186;-74
2022/11/07 02:24:52;;;;;;;24.20;15.13;;;;;;;12.25;80.52;97292.22;4969459;28;20194;-74
2022/11/07 02:27:23;;;;;;;25.33;15.87;;;;;;;12.19;80.63;97292.50;4970961;28;20196;-74
2022/11/07 02:29:56;;;;;;;25.13;15.53;;;;;;;12.16;80.07;97284.00;4970916;28;20226;-75
2022/11/07 02:32:23;;;;;;;22.67;14.00;;;;;;;12.24;80.11;97292.28;4970271;28;20256;-74
2022/11/07 02:35:01;;;;;;;25.50;14.80;;;;;;;12.35;79.97;97291.75;4971186;28;20181;-74
2022/11/07 02:37:31;;;;;;;20.70;13.77;;;;;;;12.44;78.76;97289.56;4970447;28;20197;-76
2022/11/07 02:40:05;;;;;;;22.23;15.17;;;;;;;12.35;78.62;97300.38;4970668;28;20567;-76
2022/11/07 02:42:42;;;;;;;24.57;14.33;;;;;;;12.11;78.72;97306.75;4970741;28;20220;-76
2022/11/07 02:45:14;;;;;;;24.67;14.20;;;;;;;11.92;79.45;97305.94;4970469;28;20283;-76
2022/11/07 02:47:41;;;;;;;20.57;14.00;;;;;;;11.92;79.74;97319.75;4969277;28;20293;-76
2022/11/07 02:50:11;;;;;;;20.67;14.53;;;;;;;11.87;79.10;97310.53;4970156;28;20223;-77
2022/11/07 02:52:38;;;;;;;28.53;15.70;;;;;;;11.54;81.17;97315.44;4970650;28;20271;-75
2022/11/07 02:55:06;;;;;;;30.23;16.93;;;;;;;11.43;81.63;97322.88;4970364;28;20216;-76
2022/11/07 02:57:33;;;;;;;25.23;15.47;;;;;;;11.29;82.79;97313.09;4970214;28;20208;-76
2022/11/07 03:00:00;;;;;;;22.13;15.80;;;;;;;11.49;83.33;97322.59;4970436;28;20198;-76
2022/11/07 03:02:29;;;;;;;31.20;15.23;;;;;;;11.59;81.81;97313.50;4969788;28;20661;-74
2022/11/07 03:04:57;;;;;;;27.30;14.97;;;;;;;11.63;79.98;97307.25;4953400;28;21144;-74
2022/11/07 03:07:24;;;;;;;26.33;14.40;;;;;;;11.28;80.18;97319.22;4969662;28;20255;-74
2022/11/07 03:09:51;;;;;;;27.17;14.97;;;;;;;11.24;81.01;97317.66;4970324;28;20212;-74
2022/11/07 03:12:18;;;;;;;26.07;15.87;;;;;;;11.20;81.88;97317.84;4969931;28;20189;-74
2022/11/07 03:14:45;;;;;;;27.00;16.73;;;;;;;11.37;81.21;97323.97;4969852;28;20217;-74
2022/11/07 03:17:12;;;;;;;21.33;15.50;;;;;;;11.36;81.00;97318.88;4968756;28;20657;-73
2022/11/07 03:19:39;;;;;;;30.97;15.33;;;;;;;11.40;80.19;97323.00;4969657;28;20224;-73
2022/11/07 03:22:06;;;;;;;25.53;15.53;;;;;;;11.43;79.88;97313.34;4970184;28;20213;-73
2022/11/07 03:24:33;;;;;;;27.00;15.50;;;;;;;11.45;79.44;97318.47;4969482;28;20185;-74
2022/11/07 03:26:59;;;;;;;24.77;14.77;;;;;;;11.58;79.11;97316.97;4970098;28;20693;-75
2022/11/07 03:29:26;;;;;;;29.60;15.63;;;;;;;11.57;79.60;97319.66;4969435;28;20185;-73
2022/11/07 03:31:53;;;;;;;23.30;15.53;;;;;;;11.43;78.47;97321.13;4969566;28;20628;-73
2022/11/07 03:34:20;;;;;;;21.47;13.80;;;;;;;11.38;79.07;97324.81;4969764;28;20189;-73
2022/11/07 03:36:47;;;;;;;27.13;14.97;;;;;;;11.26;79.20;97326.22;4969514;28;20284;-74
2022/11/07 03:39:14;;;;;;;27.30;14.97;;;;;;;11.23;79.26;97331.53;4969799;28;20212;-74
2022/11/07 03:41:40;;;;;;;26.37;14.50;;;;;;;11.23;79.29;97331.53;4968877;28;20192;-77
2022/11/07 03:44:07;;;;;;;27.97;15.50;;;;;;;11.27;81.92;97335.66;4968351;28;20195;-73
2022/11/07 03:46:34;;;;;;;31.13;17.00;;;;;;;11.12;82.73;97328.56;4969087;28;20212;-73
2022/11/07 03:49:01;;;;;;;30.83;18.20;;;;;;;11.06;83.66;97328.84;4969399;28;20910;-73
2022/11/07 03:51:28;;;;;;;28.30;16.67;;;;;;;11.20;83.23;97328.22;4969085;28;20220;-73
2022/11/07 03:53:55;;;;;;;29.47;15.47;;;;;;;11.19;81.21;97327.38;4969125;28;20193;-73
2022/11/07 03:56:22;;;;;;;26.23;15.57;;;;;;;11.20;80.90;97316.13;4969488;28;20227;-73
2022/11/07 03:58:49;;;;;;;22.87;14.70;;;;;;;11.27;79.55;97312.31;4968076;28;20667;-73
2022/11/07 04:01:16;;;;;;;24.00;14.43;;;;;;;11.17;79.91;97313.66;4969502;28;20193;-74
2022/11/07 04:03:43;;;;;;;24.53;14.70;;;;;;;11.35;78.62;97307.66;4968779;28;20247;-74
2022/11/07 04:06:10;;;;;;;25.30;14.37;;;;;;;11.29;77.93;97313.09;4969220;28;20197;-74
2022/11/07 04:08:37;;;;;;;30.47;14.87;;;;;;;11.27;77.30;97290.78;4969031;28;20184;-74
2022/11/07 04:11:04;;;;;;;29.53;14.50;;;;;;;11.23;77.91;97317.75;4967690;28;20234;-73
2022/11/07 04:19:03;;;;;;;24.03;14.43;;;;;;;11.21;78.58;97317.78;4969126;28;20197;-75
2022/11/07 04:21:30;;;;;;;25.00;14.70;;;;;;;11.37;77.78;97315.38;4968597;28;20195;-75
2022/11/07 04:23:57;;;;;;;24.03;14.17;;;;;;;11.25;77.09;97316.75;4968552;28;20689;-75
2022/11/07 04:29:09;;;;;;;23.87;14.50;;;;;;;11.11;78.44;97313.91;4968359;28;20214;-74
2022/11/07 04:31:36;;;;;;;23.33;14.43;;;;;;;11.12;78.15;97323.38;4968794;28;20271;-75
2022/11/07 04:34:03;;;;;;;28.50;14.83;;;;;;;11.21;77.73;97315.19;4968177;28;20189;-76
2022/11/07 04:36:30;;;;;;;30.13;15.33;;;;;;;11.24;77.20;97319.41;4968660;28;20275;-74
2022/11/07 04:38:57;;;;;;;30.57;15.83;;;;;;;11.26;76.69;97328.81;4968054;28;20229;-75
2022/11/07 04:41:24;;;;;;;25.70;15.17;;;;;;;11.24;76.38;97332.38;4968358;28;20227;-74
2022/11/07 04:43:51;;;;;;;25.53;16.13;;;;;;;11.23;76.42;97331.53;4968447;28;20295;-75
2022/11/07 04:46:18;;;;;;;29.20;14.87;;;;;;;11.12;75.79;97335.50;4967874;28;20712;-74
2022/11/07 04:48:44;;;;;;;24.87;14.57;;;;;;;11.17;75.71;97336.16;4968644;28;20201;-74
2022/11/07 04:51:17;;;;;;;30.20;16.23;;;;;;;11.10;76.13;97340.75;4950448;28;20584;-75
2022/11/07 04:53:44;;;;;;;28.17;19.83;;;;;;;10.98;76.79;97343.88;4950887;28;20190;-74
2022/11/07 04:56:11;;;;;;;31.63;16.37;;;;;;;10.99;75.86;97337.78;4968177;28;20195;-74
2022/11/07 04:58:38;;;;;;;28.60;17.00;;;;;;;10.92;76.52;97341.50;4966631;28;20201;-74
2022/11/07 05:01:05;;;;;;;28.27;17.43;;;;;;;10.98;75.61;97349.06;4967565;28;20262;-74
2022/11/07 05:03:32;;;;;;;31.53;17.23;;;;;;;10.90;76.12;97350.28;4966421;28;20197;-75
2022/11/07 05:06:06;;;;;;;27.23;16.20;;;;;;;10.90;76.27;97353.69;4968287;28;20707;-76
2022/11/07 05:08:33;;;;;;;28.30;17.47;;;;;;;10.91;75.43;97357.97;4967492;28;20630;-77
2022/11/07 05:10:59;;;;;;;29.63;17.30;;;;;;;10.68;75.94;97357.25;4967832;28;20310;-76
2022/11/07 05:13:27;;;;;;;32.50;16.77;;;;;;;10.52;76.26;97357.03;4967736;28;20219;-75
2022/11/07 05:15:54;;;;;;;31.20;17.73;;;;;;;10.38;76.84;97354.16;4950404;28;20215;-78
2022/11/07 05:18:23;;;;;;;28.83;17.00;;;;;;;10.25;76.90;97366.75;4967615;28;20643;-75
2022/11/07 05:20:50;;;;;;;26.67;16.53;;;;;;;10.26;77.77;97365.00;4961872;28;20225;-74
2022/11/07 05:23:17;;;;;;;30.73;17.23;;;;;;;10.51;77.43;97371.72;4964008;28;20192;-74
2022/11/07 05:25:50;;;;;;;29.80;16.23;;;;;;;10.69;77.00;97364.97;4965513;28;20192;-74
2022/11/07 05:28:20;;;;;;;30.47;16.77;;;;;;;10.74;76.13;97381.16;4964855;28;20224;-74
2022/11/07 05:31:02;;;;;;;29.03;16.40;;;;;;;10.91;76.03;97381.31;4967294;28;20260;-74
2022/11/07 05:33:30;;;;;;;27.03;15.73;;;;;;;10.94;75.96;97385.53;4967362;28;20189;-75
2022/11/07 05:36:18;;;;;;;27.80;15.43;;;;;;;10.97;76.01;97386.22;4967781;28;20280;-74
2022/11/07 05:38:48;;;;;;;28.77;17.53;;;;;;;11.11;76.33;97389.06;4949764;28;20188;-76
2022/11/07 05:41:16;;;;;;;26.50;16.40;;;;;;;11.19;75.57;97386.19;4967842;28;20239;-74
2022/11/07 05:43:44;;;;;;;32.33;16.27;;;;;;;10.93;76.26;97386.41;4966926;28;20188;-74
2022/11/07 05:46:11;;;;;;;31.67;17.00;;;;;;;10.77;77.17;97387.97;4967248;28;20226;-74
2022/11/07 05:48:38;;;;;;;31.27;17.80;;;;;;;10.83;76.40;97385.97;4967321;28;20192;-74
2022/11/07 05:51:06;;;;;;;32.17;17.47;;;;;;;10.59;78.00;97384.38;4966987;28;20216;-74
2022/11/07 05:53:33;;;;;;;27.47;15.90;;;;;;;10.74;78.26;97399.28;4966269;28;20205;-74
2022/11/07 05:56:00;;;;;;;38.80;17.57;;;;;;;10.94;77.64;97401.88;4966879;28;20212;-73
2022/11/07 05:58:27;;;;;;;42.43;18.17;;;;;;;11.03;76.98;97390.31;4950596;28;20193;-73
2022/11/07 06:00:54;;;;;;;60.00;20.70;;;;;;;11.35;77.18;97397.56;4966654;28;20808;-74
2022/11/07 06:03:21;;;;;;;43.40;20.43;;;;;;;11.64;75.93;97410.13;4966713;28;20232;-74
2022/11/07 06:05:48;;;;;;;37.47;19.97;;;;;;;11.75;75.11;97417.44;4967425;28;20882;-74
2022/11/07 06:08:15;;;;;;;40.73;21.80;;;;;;;11.84;75.24;97427.41;4967272;28;20275;-74
2022/11/07 06:10:42;;;;;;;43.07;22.53;;;;;;;11.98;75.17;97430.25;4966069;28;20892;-75
2022/11/07 06:13:13;;;;;;;33.63;19.00;;;;;;;11.93;74.47;97427.03;4933556;28;20206;-74
2022/11/07 06:15:42;;;;;;;33.47;18.37;;;;;;;11.94;74.83;97433.88;4967660;28;20255;-73
2022/11/07 06:18:20;;;;;;;35.30;18.97;;;;;;;11.94;75.10;97423.50;4967016;28;20192;-74
2022/11/07 06:20:47;;;;;;;31.00;18.57;;;;;;;12.09;74.07;97443.59;4966913;28;20321;-75
2022/11/07 06:23:14;;;;;;;33.57;20.97;;;;;;;11.89;74.82;97434.06;4969862;28;20195;-74
2022/11/07 06:25:42;;;;;;;35.53;20.13;;;;;;;11.95;74.15;97435.59;4970248;28;20186;-73
2022/11/07 06:28:11;;;;;;;34.27;18.10;;;;;;;12.07;75.32;97427.25;4969438;28;20768;-74
2022/11/07 06:30:38;;;;;;;39.00;20.07;;;;;;;12.40;74.36;97437.81;4970110;28;20612;-75
2022/11/07 06:33:12;;;;;;;36.47;20.57;;;;;;;12.70;74.13;97437.22;4970616;28;20249;-75
2022/11/07 06:35:40;;;;;;;43.10;19.93;;;;;;;12.93;73.12;97452.56;4970373;28;20196;-74
2022/11/07 06:38:11;;;;;;;48.30;22.53;;;;;;;13.11;73.03;97450.00;4953307;28;20201;-76
2022/11/07 06:40:40;;;;;;;36.13;21.27;;;;;;;13.34;72.75;97449.69;4970857;28;20203;-74
2022/11/07 06:43:16;;;;;;;35.43;20.30;;;;;;;13.36;71.79;97443.50;4969924;28;20277;-74
2022/11/07 06:45:45;;;;;;;38.07;22.27;;;;;;;13.37;72.13;97452.16;4970675;28;20186;-75
2022/11/07 06:48:12;;;;;;;32.40;20.57;;;;;;;13.38;72.47;97446.00;4970167;28;20336;-74
2022/11/07 06:50:39;;;;;;;35.43;21.27;;;;;;;13.38;72.56;97448.63;4970489;28;20292;-74
2022/11/07 06:53:10;;;;;;;33.63;21.47;;;;;;;13.36;71.70;97447.84;4969692;28;20187;-75
2022/11/07 06:55:38;;;;;;;33.27;20.40;;;;;;;13.37;72.64;97452.16;4969826;28;20196;-75
2022/11/07 06:58:05;;;;;;;32.87;19.53;;;;;;;13.42;73.16;97457.94;4967719;28;20254;-74
2022/11/07 07:00:34;;;;;;;47.33;24.07;;;;;;;13.39;74.04;97458.13;4969395;28;20210;-74
2022/11/07 07:03:01;;;;;;;59.40;26.80;;;;;;;13.56;73.16;97460.72;4953064;28;20197;-75
2022/11/07 07:05:29;;;;;;;39.63;20.50;;;;;;;13.35;74.69;97448.78;4970838;28;20190;-75
2022/11/07 07:07:56;;;;;;;31.67;18.93;;;;;;;13.47;75.57;97466.38;4970049;28;20195;-75
2022/11/07 07:10:23;;;;;;;33.10;17.90;;;;;;;13.72;74.96;97459.84;4969669;28;20343;-75
2022/11/07 07:12:52;;;;;;;35.63;19.90;;;;;;;13.91;74.44;97462.31;4969801;28;20487;-75
2022/11/07 07:15:19;;;;;;;38.23;18.30;;;;;;;14.14;73.95;97458.50;4969933;28;20215;-75
2022/11/07 07:17:47;;;;;;;28.50;16.97;;;;;;;14.37;73.58;97468.59;4969316;28;20231;-75
2022/11/07 07:20:14;;;;;;;31.07;16.97;;;;;;;14.50;73.38;97467.00;4952172;28;20255;-76
2022/11/07 07:22:43;;;;;;;29.23;17.67;;;;;;;14.47;73.55;97473.22;4966741;28;20203;-75
2022/11/07 07:25:10;;;;;;;36.97;16.83;;;;;;;14.43;73.45;97478.66;4969347;28;20468;-77
2022/11/07 07:27:37;;;;;;;33.17;19.13;;;;;;;14.58;73.22;97477.84;4968629;28;20301;-77
2022/11/07 07:30:06;;;;;;;31.03;16.93;;;;;;;14.69;72.30;97473.72;4968926;28;20291;-75
2022/11/07 07:32:36;;;;;;;26.00;16.67;;;;;;;14.82;71.69;97483.50;4968930;28;20605;-75
2022/11/07 07:35:03;;;;;;;29.07;16.97;;;;;;;14.74;71.78;97477.84;4970389;28;20193;-76
2022/11/07 07:37:30;;;;;;;35.63;17.67;;;;;;;14.75;71.52;97482.13;4968098;28;20272;-75
2022/11/07 07:39:57;;;;;;;34.37;17.60;;;;;;;14.92;71.70;97489.88;4968518;28;20192;-77
2022/11/07 07:42:24;;;;;;;32.00;16.60;;;;;;;15.06;70.63;97482.13;4969352;28;20189;-75
2022/11/07 07:44:53;;;;;;;30.93;17.43;;;;;;;15.13;70.53;97488.66;4967001;28;20196;-77
2022/11/07 07:47:20;;;;;;;32.03;16.67;;;;;;;15.26;70.22;97474.84;4968944;28;20195;-76
2022/11/07 07:49:47;;;;;;;30.63;16.57;;;;;;;15.37;69.64;97488.09;4967407;28;20544;-77
2022/11/07 07:52:14;;;;;;;26.67;14.63;;;;;;;15.48;69.09;97474.44;4968218;28;20309;-77
2022/11/07 07:54:40;;;;;;;35.73;17.23;;;;;;;15.52;69.17;97469.91;4967278;28;20589;-77
2022/11/07 07:57:07;;;;;;;30.00;17.33;;;;;;;15.63;68.62;97477.94;4968137;28;20197;-75
2022/11/07 07:59:34;;;;;;;30.23;16.20;;;;;;;15.63;69.14;97484.00;4969080;28;20585;-75
2022/11/07 08:02:01;;;;;;;28.00;17.27;;;;;;;15.74;69.48;97471.19;4968172;28;20228;-75
2022/11/07 08:04:29;;;;;;;31.07;18.03;;;;;;;15.86;68.74;97480.03;4968462;28;20246;-75
2022/11/07 08:06:55;;;;;;;27.77;17.43;;;;;;;15.73;68.64;97477.31;4968383;28;20204;-75
2022/11/07 08:09:22;;;;;;;29.70;16.83;;;;;;;15.79;67.97;97476.09;4966853;28;20263;-75
2022/11/07 08:11:49;;;;;;;30.47;18.20;;;;;;;15.70;68.09;97474.06;4968496;28;20314;-75
2022/11/07 08:14:16;;;;;;;27.57;16.33;;;;;;;15.89;68.07;97482.47;4966296;28;20204;-75
2022/11/07 08:16:43;;;;;;;34.87;16.80;;;;;;;16.05;67.14;97478.00;4968901;28;20607;-74
2022/11/07 08:19:10;;;;;;;25.33;16.60;;;;;;;16.18;66.62;97485.00;4949623;28;20204;-78
2022/11/07 08:21:37;;;;;;;29.23;16.60;;;;;;;16.26;66.11;97487.13;4966792;28;20196;-76
2022/11/07 08:24:04;;;;;;;28.40;17.20;;;;;;;16.26;66.20;97479.28;4968058;28;20557;-77
2022/11/07 08:27:12;;;;;;;24.90;16.17;;;;;;;16.09;66.54;97482.13;4966214;28;20184;-76
2022/11/07 08:30:32;;;;;;;26.40;15.47;;;;;;;16.16;66.54;97484.25;4965764;28;20235;-75
2022/11/07 08:33:13;;;;;;;29.20;15.37;;;;;;;16.32;66.51;97483.31;4947718;29;20327;-76
2022/11/07 08:35:41;;;;;;;25.40;15.13;;;;;;;16.26;67.07;97482.75;4948160;29;20307;-75
2022/11/07 08:38:08;;;;;;;25.70;14.73;;;;;;;16.35;66.81;97478.75;4946833;29;20981;-76
2022/11/07 08:40:35;;;;;;;22.23;14.47;;;;;;;16.20;67.25;97480.53;4947602;29;20190;-78
2022/11/07 08:43:02;;;;;;;29.13;16.87;;;;;;;16.09;67.41;97482.94;4947458;29;20189;-77
2022/11/07 08:45:29;;;;;;;31.23;16.40;;;;;;;16.23;67.22;97480.34;4947452;28;20195;-75
2022/11/07 08:47:58;;;;;;;29.17;16.10;;;;;;;16.25;67.47;97475.88;4948259;29;20276;-77
2022/11/07 08:50:25;;;;;;;32.43;17.97;;;;;;;16.45;67.08;97484.22;4931376;29;20197;-76
2022/11/07 08:52:53;;;;;;;23.27;15.70;;;;;;;16.68;65.96;97475.81;4930480;29;20229;-76
2022/11/07 08:55:28;;;;;;;25.90;14.63;;;;;;;16.78;65.34;97476.91;4946973;28;20205;-76
2022/11/07 08:58:04;;;;;;;26.40;15.53;;;;;;;16.72;65.29;97472.94;4946242;29;20256;-75
2022/11/07 09:00:32;;;;;;;23.70;14.73;;;;;;;16.89;65.02;97474.47;4948493;29;20185;-75
2022/11/07 09:03:04;;;;;;;24.70;14.97;;;;;;;17.02;64.11;97470.16;4946351;29;20197;-75
2022/11/07 09:05:51;;;;;;;27.90;15.50;;;;;;;17.02;64.01;97470.97;4947851;29;20233;-75
2022/11/07 09:08:18;;;;;;;27.33;14.23;;;;;;;17.20;63.36;97466.31;4931304;29;20197;-75
2022/11/07 09:10:45;;;;;;;30.00;16.37;;;;;;;17.18;63.40;97459.50;4946182;28;20644;-75
2022/11/07 09:13:13;;;;;;;23.17;14.57;;;;;;;17.23;63.25;97460.06;4948760;29;20317;-76
2022/11/07 09:16:21;;;;;;;19.83;13.03;;;;;;;17.01;63.57;97455.38;4956494;28;20204;-76
2022/11/07 09:19:01;;;;;;;27.23;16.07;;;;;;;17.20;62.53;97450.63;4964859;28;20685;-75
2022/11/07 09:21:28;;;;;;;23.67;13.90;;;;;;;17.23;62.37;97446.97;4966071;28;20256;-76
2022/11/07 09:23:55;;;;;;;23.17;14.33;;;;;;;17.31;62.40;97455.97;4965219;28;20648;-75
2022/11/07 09:26:23;;;;;;;29.70;14.57;;;;;;;17.39;61.72;97455.50;4967544;28;20612;-76
2022/11/07 09:28:51;;;;;;;26.53;15.57;;;;;;;17.49;61.40;97448.69;4967155;28;20724;-74
2022/11/07 09:31:25;;;;;;;29.07;14.77;;;;;;;17.50;61.23;97440.75;4966613;28;20223;-76
2022/11/07 09:33:52;;;;;;;23.50;13.83;;;;;;;17.52;61.38;97436.25;4966879;28;20752;-75
2022/11/07 09:36:21;;;;;;;29.60;16.03;;;;;;;17.54;61.08;97434.38;4966596;28;20562;-75
2022/11/07 09:38:48;;;;;;;24.70;15.37;;;;;;;17.60;60.71;97423.47;4967507;28;20197;-77
2022/11/07 09:41:31;;;;;;;21.63;12.60;;;;;;;17.79;60.20;97431.78;4966274;28;20185;-74
2022/11/07 09:44:13;;;;;;;25.33;13.80;;;;;;;17.78;60.23;97432.69;4967258;28;20190;-74
2022/11/07 09:46:59;;;;;;;26.43;13.53;;;;;;;18.03;59.82;97439.75;4965419;28;20192;-75
2022/11/07 09:49:46;;;;;;;23.93;14.17;;;;;;;18.09;59.55;97438.47;4964736;28;20206;-74
2022/11/07 09:52:31;;;;;;;22.63;13.33;;;;;;;18.17;59.12;97430.91;4966693;28;20275;-75
2022/11/07 09:55:07;;;;;;;24.57;13.30;;;;;;;18.02;59.79;97424.09;4966345;28;20284;-76
2022/11/07 09:57:36;;;;;;;19.60;12.13;;;;;;;18.09;58.67;97428.84;4968417;28;20215;-75
2022/11/07 10:00:10;;;;;;;24.00;13.70;;;;;;;18.13;58.84;97419.81;4970939;28;20243;-74
2022/11/07 10:02:42;;;;;;;25.37;14.23;;;;;;;18.30;58.57;97421.25;4968255;28;20204;-76
2022/11/07 10:05:14;;;;;;;27.37;13.63;;;;;;;18.41;58.06;97418.69;4969379;28;20202;-75
2022/11/07 10:07:57;;;;;;;23.03;13.73;;;;;;;18.50;57.30;97423.34;4968734;28;20220;-76
2022/11/07 10:10:41;;;;;;;19.00;12.47;;;;;;;18.29;57.02;97398.59;4970155;28;20203;-75
2022/11/07 10:13:49;;;;;;;19.27;12.00;;;;;;;18.34;57.01;97417.47;4968886;28;20231;-75
2022/11/07 10:16:37;;;;;;;24.47;13.63;;;;;;;18.46;56.43;97419.25;4969691;28;20295;-75
2022/11/07 10:19:31;;;;;;;21.63;14.13;;;;;;;18.46;56.47;97419.25;4969895;28;20238;-75
2022/11/07 10:22:04;;;;;;;18.90;11.53;;;;;;;18.62;55.93;97418.06;4946572;29;20207;-74
2022/11/07 10:24:34;;;;;;;23.00;12.77;;;;;;;18.72;55.35;97401.63;4945434;29;20207;-75
2022/11/07 10:27:01;;;;;;;26.30;13.13;;;;;;;18.72;55.30;97399.84;4933816;29;20648;-74
2022/11/07 10:29:40;;;;;;;18.17;12.23;;;;;;;18.78;55.06;97402.03;4946163;29;20196;-75
2022/11/07 10:32:39;;;;;;;24.13;12.83;;;;;;;18.89;55.22;97404.72;4931940;29;20219;-75
2022/11/07 10:35:28;;;;;;;16.73;12.57;;;;;;;18.79;55.13;97408.97;4913006;29;20225;-75
2022/11/07 10:38:00;;;;;;;22.13;12.73;;;;;;;18.61;55.63;97399.78;4912265;29;20212;-75
2022/11/07 10:40:40;;;;;;;23.53;14.33;;;;;;;18.59;55.53;97389.41;4912326;29;20202;-75
2022/11/07 10:43:14;;;;;;;21.40;12.90;;;;;;;18.48;55.71;97389.34;4926893;29;20200;-75
2022/11/07 10:45:42;;;;;;;22.97;13.47;;;;;;;18.36;56.44;97386.72;4912541;29;20196;-74
2022/11/07 10:48:12;;;;;;;20.30;12.67;;;;;;;18.20;56.33;97378.25;4912787;29;20672;-72
2022/11/07 10:50:50;;;;;;;25.60;13.80;;;;;;;18.26;56.52;97388.34;4926206;29;20196;-76
2022/11/07 10:53:21;;;;;;;20.43;11.57;;;;;;;18.35;56.15;97385.03;4912136;29;20226;-76
2022/11/07 10:55:50;;;;;;;28.67;12.87;;;;;;;18.49;55.66;97384.91;4926471;29;20226;-76
2022/11/07 10:58:29;;;;;;;22.33;12.70;;;;;;;18.80;56.40;97387.00;4910398;29;20211;-76
2022/11/07 11:01:02;;;;;;;18.23;11.97;;;;;;;19.02;55.40;97394.97;4926595;29;20232;-79
2022/11/07 11:03:32;;;;;;;19.40;12.90;;;;;;;19.09;53.97;97387.50;4910121;29;20197;-76
2022/11/07 11:06:16;;;;;;;19.37;12.20;;;;;;;18.98;54.35;97377.78;4896807;29;20700;-77
2022/11/07 11:08:49;;;;;;;20.10;13.13;;;;;;;19.13;53.74;97366.16;4926494;29;20703;-79
2022/11/07 11:11:36;;;;;;;24.60;12.97;;;;;;;19.31;53.59;97370.00;4945395;29;20210;-78
2022/11/07 11:14:12;;;;;;;21.17;12.13;;;;;;;19.31;52.87;97356.88;4945680;29;20267;-77
2022/11/07 11:16:41;;;;;;;20.97;13.23;;;;;;;19.36;53.35;97362.66;4928769;29;20248;-78
2022/11/07 11:19:22;;;;;;;19.13;12.60;;;;;;;19.23;53.70;97361.88;4946123;28;20603;-77
2022/11/07 11:21:52;;;;;;;23.83;12.77;;;;;;;19.28;53.34;97366.78;4969389;28;20198;-77
2022/11/07 11:24:32;;;;;;;19.60;12.47;;;;;;;19.45;53.22;97359.31;4969819;28;20188;-77
2022/11/07 11:27:09;;;;;;;23.80;13.07;;;;;;;19.41;53.07;97355.25;4968111;28;20194;-80
2022/11/07 11:29:48;;;;;;;22.50;14.07;;;;;;;19.49;53.17;97354.69;4983329;28;20236;-78
2022/11/07 11:32:34;;;;;;;29.17;13.37;;;;;;;19.56;52.94;97349.81;4969093;28;20317;-78
2022/11/07 11:35:22;;;;;;;22.43;13.17;;;;;;;19.34;52.59;97326.97;4967791;28;20239;-78
2022/11/07 11:37:57;;;;;;;19.73;13.17;;;;;;;19.46;52.48;97331.28;4967415;28;20223;-76
2022/11/07 11:40:27;;;;;;;19.13;13.03;;;;;;;19.32;52.93;97334.94;4984131;28;20281;-77
2022/11/07 11:43:13;;;;;;;22.60;13.70;;;;;;;18.85;54.29;97332.41;4967052;28;20203;-80